Time;durP1;ratioP1;P1;durP2;ratioP2;P2;SDS_P1;SDS_P2;PMS_P1;PMS_P2;Temp;Humidity;BMP_temperature;BMP_pressure;BME280_temperature;BME280_humidity;BME280_pressure;Samples;Min_cycle;Max_cycle;Signal;HPM_P1;HPM_P2
2021/09/19 00:01:43;;;;;;;11.78;4.65;;;;;;;16.74;100.00;99329.58;1770087;81;21220;-76
2021/09/19 00:04:49;;;;;;;9.43;3.55;;;;;;;16.74;100.00;99326.81;1771170;81;21296;-76
2021/09/19 00:07:55;;;;;;;7.58;3.37;;;;;;;16.75;100.00;99331.25;1771187;81;21173;-76
2021/09/19 00:11:02;;;;;;;13.05;4.95;;;;;;;16.78;100.00;99344.59;1770119;81;21327;-76
2021/09/19 00:14:08;;;;;;;15.83;4.92;;;;;;;16.81;100.00;99345.50;1769692;81;21192;-76
2021/09/19 00:17:14;;;;;;;10.80;3.95;;;;;;;16.86;100.00;99339.55;1770309;81;21792;-76
2021/09/19 00:20:20;;;;;;;13.62;4.60;;;;;;;16.90;100.00;99341.30;1769787;80;21212;-76
2021/09/19 00:23:27;;;;;;;10.38;3.77;;;;;;;16.88;100.00;99332.39;1769844;80;21751;-76
2021/09/19 00:26:34;;;;;;;7.87;3.37;;;;;;;16.81;100.00;99327.02;1769759;81;21212;-76
2021/09/19 00:29:39;;;;;;;7.55;3.30;;;;;;;16.75;100.00;99327.11;1771128;81;21854;-76
2021/09/19 00:32:46;;;;;;;10.38;3.87;;;;;;;16.70;100.00;99331.10;1771364;81;21299;-76
2021/09/19 00:35:54;;;;;;;10.50;4.10;;;;;;;16.67;100.00;99333.82;1771290;81;21299;-76
2021/09/19 00:39:01;;;;;;;7.20;3.42;;;;;;;16.66;100.00;99320.27;1771125;81;21299;-76
2021/09/19 00:42:06;;;;;;;9.70;3.10;;;;;;;16.66;100.00;99319.73;1769830;81;21346;-76
2021/09/19 00:45:19;;;;;;;13.15;3.83;;;;;;;16.64;100.00;99320.48;1771291;81;21295;-77
2021/09/19 00:48:24;;;;;;;8.13;3.20;;;;;;;16.64;100.00;99316.34;1771275;81;21185;-76
2021/09/19 00:51:29;;;;;;;6.87;3.87;;;;;;;16.58;100.00;99314.55;1771378;81;21299;-76
2021/09/19 00:54:35;;;;;;;7.22;3.00;;;;;;;16.55;100.00;99324.14;1769346;81;21917;-76
2021/09/19 00:57:44;;;;;;;6.90;3.35;;;;;;;16.53;100.00;99320.79;1752633;81;22581;-76
2021/09/19 01:00:49;;;;;;;9.38;4.15;;;;;;;16.53;100.00;99319.41;1770955;81;21342;-76
2021/09/19 01:03:56;;;;;;;7.97;3.35;;;;;;;16.52;100.00;99317.73;1769624;81;21247;-76
2021/09/19 01:07:02;;;;;;;6.85;3.58;;;;;;;16.54;100.00;99310.59;1770916;81;21343;-76
2021/09/19 01:10:07;;;;;;;10.43;4.22;;;;;;;16.55;100.00;99306.73;1771359;81;21826;-76
2021/09/19 01:13:13;;;;;;;7.67;3.47;;;;;;;16.55;100.00;99313.09;1769629;80;21235;-76
2021/09/19 01:16:20;;;;;;;6.42;3.25;;;;;;;16.56;100.00;99318.94;1771033;81;21297;-76
2021/09/19 01:19:29;;;;;;;7.10;3.72;;;;;;;16.55;100.00;99321.38;1769789;81;21196;-76
2021/09/19 01:22:41;;;;;;;8.90;4.28;;;;;;;16.53;100.00;99315.27;1769795;81;21787;-76
2021/09/19 01:25:50;;;;;;;11.88;3.85;;;;;;;16.54;100.00;99326.60;1769829;81;21276;-76
2021/09/19 01:28:54;;;;;;;8.23;4.42;;;;;;;16.60;100.00;99323.42;1770586;81;21335;-76
2021/09/19 01:32:00;;;;;;;13.60;5.28;;;;;;;16.63;100.00;99319.36;1771152;81;21348;-76
2021/09/19 01:35:05;;;;;;;11.78;5.03;;;;;;;16.63;100.00;99317.43;1771021;81;21307;-78
2021/09/19 01:38:11;;;;;;;9.80;4.10;;;;;;;16.67;100.00;99315.04;1770478;81;21200;-77
2021/09/19 01:41:19;;;;;;;12.37;4.37;;;;;;;16.72;100.00;99319.33;1769704;81;21842;-77
2021/09/19 01:44:25;;;;;;;9.30;3.72;;;;;;;16.75;100.00;99308.66;1771342;81;21868;-77
2021/09/19 01:47:31;;;;;;;10.32;4.62;;;;;;;16.77;100.00;99316.14;1769803;81;21872;-77
2021/09/19 01:50:37;;;;;;;12.00;3.95;;;;;;;16.77;100.00;99312.00;1769682;81;21728;-77
2021/09/19 01:53:48;;;;;;;9.38;4.33;;;;;;;16.74;100.00;99307.48;1771200;81;21295;-77
2021/09/19 01:56:54;;;;;;;9.83;4.75;;;;;;;16.70;100.00;99301.60;1769694;81;21283;-75
2021/09/19 02:00:01;;;;;;;13.50;3.72;;;;;;;16.68;100.00;99296.00;1769730;81;21815;-75
2021/09/19 02:03:06;;;;;;;9.13;4.30;;;;;;;16.65;100.00;99300.62;1771540;81;21294;-74
2021/09/19 02:06:13;;;;;;;9.38;4.20;;;;;;;16.63;100.00;99304.17;1769628;80;21244;-75
2021/09/19 02:09:18;;;;;;;10.65;3.90;;;;;;;16.63;100.00;99298.65;1770639;80;21708;-77
2021/09/19 02:12:24;;;;;;;7.87;4.03;;;;;;;16.64;100.00;99296.18;1770626;81;21272;-77
2021/09/19 02:15:31;;;;;;;12.30;4.25;;;;;;;16.66;100.00;99293.50;1770213;81;21316;-77
2021/09/19 02:18:37;;;;;;;9.53;3.90;;;;;;;16.69;100.00;99297.14;1769637;81;21184;-77
2021/09/19 02:21:43;;;;;;;7.45;4.03;;;;;;;16.69;100.00;99289.39;1769702;80;21189;-77
2021/09/19 02:24:49;;;;;;;7.37;3.92;;;;;;;16.69;100.00;99290.77;1770319;81;21307;-76
2021/09/19 02:27:56;;;;;;;11.03;4.47;;;;;;;16.70;100.00;99288.31;1770241;81;21350;-76
2021/09/19 02:31:03;;;;;;;8.78;4.60;;;;;;;16.71;100.00;99293.61;1771109;81;21298;-76
2021/09/19 02:34:08;;;;;;;7.62;4.58;;;;;;;16.69;100.00;99283.87;1771128;81;21292;-77
2021/09/19 02:37:14;;;;;;;9.43;4.22;;;;;;;16.70;100.00;99282.78;1769641;81;21185;-76
2021/09/19 02:40:21;;;;;;;7.50;4.78;;;;;;;16.69;100.00;99286.09;1769834;81;21188;-76
2021/09/19 02:43:28;;;;;;;11.60;4.95;;;;;;;16.68;100.00;99271.16;1770695;81;21768;-76
2021/09/19 02:46:34;;;;;;;11.35;4.75;;;;;;;16.66;100.00;99281.61;1769574;81;21255;-76
2021/09/19 02:49:40;;;;;;;14.65;4.72;;;;;;;16.65;100.00;99281.30;1769700;81;21280;-77
2021/09/19 02:52:47;;;;;;;7.72;4.20;;;;;;;16.65;100.00;99284.89;1769812;81;21165;-76
2021/09/19 02:55:54;;;;;;;8.68;4.75;;;;;;;16.67;100.00;99281.36;1771246;81;21311;-77
2021/09/19 02:59:00;;;;;;;8.83;4.20;;;;;;;16.69;100.00;99282.49;1769725;81;21228;-76
2021/09/19 03:02:06;;;;;;;7.92;4.30;;;;;;;16.70;100.00;99274.50;1769844;81;21334;-77
2021/09/19 03:05:15;;;;;;;11.63;4.67;;;;;;;16.73;100.00;99286.48;1770682;81;21275;-76
2021/09/19 03:08:19;;;;;;;12.45;4.85;;;;;;;16.80;100.00;99280.31;1772071;81;21727;-76
2021/09/19 03:11:24;;;;;;;12.90;4.70;;;;;;;16.86;100.00;99282.94;1772202;81;21319;-76
2021/09/19 03:14:31;;;;;;;10.05;4.42;;;;;;;16.93;100.00;99295.22;1769601;80;21181;-76
2021/09/19 03:17:36;;;;;;;11.45;4.65;;;;;;;17.00;100.00;99295.11;1769578;81;21192;-77
2021/09/19 03:20:41;;;;;;;10.35;4.72;;;;;;;17.06;100.00;99284.46;1769596;81;21292;-76
2021/09/19 03:23:47;;;;;;;7.75;4.12;;;;;;;17.12;100.00;99276.56;1771055;81;21720;-76
2021/09/19 03:26:53;;;;;;;12.65;4.92;;;;;;;17.15;100.00;99270.56;1771069;81;21870;-76
2021/09/19 03:29:59;;;;;;;19.80;4.90;;;;;;;17.15;100.00;99275.26;1769721;81;21791;-76
2021/09/19 03:33:06;;;;;;;15.53;5.33;;;;;;;17.09;100.00;99272.39;1769723;81;21839;-76
2021/09/19 03:36:11;;;;;;;11.08;4.70;;;;;;;17.07;100.00;99278.68;1769857;81;21350;-76
2021/09/19 03:39:17;;;;;;;13.30;4.45;;;;;;;17.03;100.00;99273.38;1769634;81;21181;-76
2021/09/19 03:42:24;;;;;;;14.18;4.95;;;;;;;16.95;100.00;99275.13;1769475;80;21252;-77
2021/09/19 03:45:31;;;;;;;16.27;6.05;;;;;;;16.92;100.00;99273.38;1771270;81;21252;-77
2021/09/19 03:48:37;;;;;;;13.15;5.25;;;;;;;16.88;100.00;99273.56;1770874;81;21330;-76
2021/09/19 03:51:43;;;;;;;9.38;5.45;;;;;;;16.85;100.00;99276.28;1771211;81;21303;-76
2021/09/19 03:54:49;;;;;;;14.80;6.15;;;;;;;16.87;100.00;99283.77;1769851;81;21733;-76
2021/09/19 03:57:54;;;;;;;10.28;5.28;;;;;;;16.90;100.00;99292.13;1769506;81;21212;-77
2021/09/19 04:01:00;;;;;;;8.73;5.47;;;;;;;16.93;100.00;99288.86;1769997;81;21224;-77
2021/09/19 04:04:07;;;;;;;11.30;5.78;;;;;;;16.98;100.00;99280.14;1769545;81;21180;-76
2021/09/19 04:07:14;;;;;;;12.15;5.62;;;;;;;16.98;100.00;99282.91;1771081;81;21295;-76
2021/09/19 04:10:19;;;;;;;11.90;5.58;;;;;;;16.95;99.83;99288.09;1770497;81;21331;-76
2021/09/19 04:13:26;;;;;;;14.13;6.22;;;;;;;16.92;100.00;99292.17;1769849;81;21736;-76
2021/09/19 04:16:30;;;;;;;13.85;6.70;;;;;;;16.91;100.00;99290.50;1771763;81;21839;-76
2021/09/19 04:19:36;;;;;;;12.07;6.45;;;;;;;16.86;99.86;99291.77;1772149;81;21333;-76
2021/09/19 04:22:42;;;;;;;8.68;5.87;;;;;;;16.84;100.00;99294.78;1770618;81;21165;-76
2021/09/19 04:25:47;;;;;;;13.50;7.50;;;;;;;16.85;100.00;99295.07;1771622;81;21303;-76
2021/09/19 04:28:53;;;;;;;10.63;6.50;;;;;;;16.88;100.00;99297.88;1771165;81;21339;-77
2021/09/19 04:31:59;;;;;;;15.28;7.17;;;;;;;16.91;100.00;99300.16;1771161;81;21283;-76
2021/09/19 04:35:04;;;;;;;12.23;7.12;;;;;;;16.94;100.00;99298.31;1770415;81;21374;-76
2021/09/19 04:38:11;;;;;;;17.23;8.38;;;;;;;16.98;100.00;99302.78;1769720;81;21204;-76
2021/09/19 04:41:17;;;;;;;15.03;8.45;;;;;;;17.00;100.00;99307.00;1770120;81;21490;-76
2021/09/19 04:44:23;;;;;;;15.90;8.75;;;;;;;17.04;100.00;99302.67;1771273;81;21346;-76
2021/09/19 04:47:29;;;;;;;19.80;8.50;;;;;;;17.12;100.00;99305.58;1771073;81;21228;-76
2021/09/19 04:50:36;;;;;;;21.65;8.10;;;;;;;17.20;100.00;99302.98;1770105;81;21884;-76
2021/09/19 04:53:41;;;;;;;17.70;8.55;;;;;;;17.27;100.00;99303.71;1771314;81;21577;-76
2021/09/19 04:56:46;;;;;;;16.32;8.95;;;;;;;17.37;100.00;99302.53;1771093;81;21295;-76
2021/09/19 04:59:53;;;;;;;16.20;8.80;;;;;;;17.49;100.00;99306.63;1768100;81;21391;-76
2021/09/19 05:02:59;;;;;;;17.20;9.65;;;;;;;17.59;100.00;99294.38;1771110;81;21215;-76
2021/09/19 05:06:04;;;;;;;19.92;9.68;;;;;;;17.67;100.00;99298.14;1769953;81;21346;-76
2021/09/19 05:09:09;;;;;;;14.60;9.08;;;;;;;17.71;99.72;99298.50;1771269;81;21291;-76
2021/09/19 05:12:16;;;;;;;18.82;9.35;;;;;;;17.74;99.34;99299.42;1769647;81;21204;-76
2021/09/19 05:15:22;;;;;;;14.47;9.60;;;;;;;17.77;98.99;99292.00;1772153;81;21256;-76
2021/09/19 05:18:28;;;;;;;18.00;9.58;;;;;;;17.78;98.53;99292.28;1770892;80;21161;-76
2021/09/19 05:21:35;;;;;;;19.00;11.10;;;;;;;17.79;98.19;99292.61;1771268;81;21188;-76
2021/09/19 05:24:40;;;;;;;23.30;11.80;;;;;;;17.86;98.10;99298.81;1769891;81;21312;-76
2021/09/19 05:27:46;;;;;;;19.42;10.78;;;;;;;17.95;98.20;99306.16;1769823;81;21169;-76
2021/09/19 05:30:52;;;;;;;23.25;11.12;;;;;;;18.01;98.06;99318.45;1770704;81;21216;-76
2021/09/19 05:33:57;;;;;;;18.57;11.30;;;;;;;18.07;97.76;99320.23;1771083;81;21787;-76
2021/09/19 05:37:04;;;;;;;20.77;12.78;;;;;;;18.07;97.16;99325.77;1771302;81;21165;-75
2021/09/19 05:40:10;;;;;;;21.97;11.57;;;;;;;18.03;96.92;99323.20;1771011;81;21319;-76
2021/09/19 05:43:15;;;;;;;23.40;12.50;;;;;;;18.03;96.93;99327.36;1772112;81;21284;-76
2021/09/19 05:46:20;;;;;;;19.50;12.50;;;;;;;18.03;96.64;99327.36;1772117;81;21342;-76
2021/09/19 05:49:25;;;;;;;22.17;13.00;;;;;;;18.09;97.08;99322.20;1771574;81;21200;-76
2021/09/19 05:52:31;;;;;;;23.32;13.83;;;;;;;18.20;97.35;99324.59;1769444;81;21255;-76
2021/09/19 05:55:36;;;;;;;23.62;13.48;;;;;;;18.37;97.55;99324.63;1771282;81;22565;-76
2021/09/19 05:58:42;;;;;;;22.05;13.30;;;;;;;18.61;97.56;99316.98;1771184;81;21303;-76
2021/09/19 06:01:51;;;;;;;22.60;13.25;;;;;;;18.83;96.92;99318.47;1769842;81;21327;-76
2021/09/19 06:04:57;;;;;;;20.02;14.75;;;;;;;19.03;96.31;99322.91;1771075;81;21843;-76
2021/09/19 06:08:03;;;;;;;22.95;14.70;;;;;;;19.23;95.33;99322.89;1769617;81;21243;-75
2021/09/19 06:11:09;;;;;;;25.20;15.95;;;;;;;19.36;94.31;99320.58;1769786;81;21208;-77
2021/09/19 06:14:17;;;;;;;23.85;16.50;;;;;;;19.49;93.38;99317.98;1769786;81;21776;-76
2021/09/19 06:17:22;;;;;;;16.40;13.93;;;;;;;19.62;92.14;99316.23;1771531;81;21343;-77
2021/09/19 06:20:28;;;;;;;18.12;14.10;;;;;;;19.74;89.09;99320.23;1771177;81;21192;-77
2021/09/19 06:23:36;;;;;;;20.32;15.32;;;;;;;19.78;86.93;99322.78;1771185;81;21311;-77
2021/09/19 06:26:41;;;;;;;23.32;17.25;;;;;;;19.81;85.30;99325.59;1771246;81;21275;-76
2021/09/19 06:29:49;;;;;;;19.90;16.17;;;;;;;19.93;84.95;99329.04;1771174;81;21303;-77
2021/09/19 06:32:56;;;;;;;27.22;18.32;;;;;;;20.11;84.29;99327.29;1770933;81;21752;-77
2021/09/19 06:36:03;;;;;;;22.15;16.93;;;;;;;20.30;83.66;99343.02;1771036;81;21307;-77
2021/09/19 06:39:09;;;;;;;19.73;16.75;;;;;;;20.56;83.04;99345.52;1771159;81;21189;-77
2021/09/19 06:42:15;;;;;;;23.85;18.32;;;;;;;20.77;81.80;99352.61;1769712;81;21255;-77
2021/09/19 06:45:20;;;;;;;18.05;14.90;;;;;;;20.94;80.95;99346.36;1771202;81;21295;-77
2021/09/19 06:48:26;;;;;;;19.67;15.70;;;;;;;21.09;79.86;99344.22;1771121;81;22529;-77
2021/09/19 06:51:32;;;;;;;17.73;14.43;;;;;;;21.27;78.76;99346.55;1770767;81;21675;-77
2021/09/19 06:54:42;;;;;;;17.55;14.80;;;;;;;21.49;77.83;99343.62;1771125;81;21196;-77
2021/09/19 06:57:46;;;;;;;21.90;15.25;;;;;;;21.62;77.17;99343.13;1769801;81;21296;-76
2021/09/19 07:00:53;;;;;;;18.62;14.70;;;;;;;21.83;76.95;99341.79;1770866;80;21205;-77
2021/09/19 07:04:00;;;;;;;20.43;14.90;;;;;;;22.00;76.15;99346.58;1771217;81;21189;-76
2021/09/19 07:07:06;;;;;;;18.95;14.87;;;;;;;22.13;74.84;99339.13;1770584;81;21330;-76
2021/09/19 07:10:12;;;;;;;18.62;14.43;;;;;;;22.20;74.24;99339.68;1771163;81;21838;-76
2021/09/19 07:13:18;;;;;;;15.08;12.73;;;;;;;22.18;72.26;99344.70;1770144;81;21255;-76
2021/09/19 07:16:24;;;;;;;15.72;13.18;;;;;;;22.09;72.31;99343.54;1769637;81;21763;-76
2021/09/19 07:19:30;;;;;;;13.70;11.57;;;;;;;21.95;72.24;99350.75;1771089;81;21181;-76
2021/09/19 07:22:40;;;;;;;19.00;15.63;;;;;;;21.74;71.12;99354.03;1769498;81;21196;-76
2021/09/19 07:25:44;;;;;;;22.90;18.37;;;;;;;21.41;71.38;99360.29;1771072;81;21499;-76
2021/09/19 07:28:49;;;;;;;23.00;18.57;;;;;;;21.10;72.36;99355.06;1769632;81;21350;-76
2021/09/19 07:31:54;;;;;;;24.27;17.30;;;;;;;20.92;73.12;99357.72;1770956;81;21294;-76
2021/09/19 07:35:00;;;;;;;20.15;17.07;;;;;;;20.76;73.68;99348.16;1771243;81;21744;-76
2021/09/19 07:38:05;;;;;;;22.65;18.62;;;;;;;20.63;74.50;99355.84;1770368;81;21394;-76
2021/09/19 07:41:11;;;;;;;19.90;17.15;;;;;;;20.57;75.06;99368.02;1771213;81;21302;-76
2021/09/19 07:44:16;;;;;;;21.73;18.48;;;;;;;20.58;75.67;99373.02;1769758;81;21847;-76
2021/09/19 07:47:22;;;;;;;22.45;18.02;;;;;;;20.50;75.56;99366.00;1769612;81;21684;-76
2021/09/19 07:50:27;;;;;;;21.82;18.20;;;;;;;20.46;75.15;99380.09;1770991;81;21299;-76
2021/09/19 07:53:34;;;;;;;25.20;20.00;;;;;;;20.42;75.09;99375.64;1770968;81;21196;-76
2021/09/19 07:56:39;;;;;;;23.60;20.30;;;;;;;20.37;75.54;99387.22;1772024;81;21260;-76
2021/09/19 07:59:44;;;;;;;26.45;21.12;;;;;;;20.27;76.16;99380.18;1772010;81;21248;-76
2021/09/19 08:02:49;;;;;;;27.17;21.97;;;;;;;20.23;76.82;99369.30;1769656;81;21192;-76
2021/09/19 08:05:55;;;;;;;25.90;20.80;;;;;;;20.21;77.12;99370.13;1771549;81;22568;-76
2021/09/19 08:09:02;;;;;;;26.10;21.97;;;;;;;20.22;76.92;99376.80;1769649;81;21334;-76
2021/09/19 08:12:08;;;;;;;28.77;23.85;;;;;;;20.19;76.95;99380.12;1771020;81;21717;-76
2021/09/19 08:15:14;;;;;;;26.75;22.52;;;;;;;20.14;77.42;99380.91;1771125;81;21295;-76
2021/09/19 08:18:21;;;;;;;27.13;22.20;;;;;;;20.14;77.87;99377.30;1771013;81;21307;-76
2021/09/19 08:21:28;;;;;;;29.95;23.00;;;;;;;20.16;78.02;99381.47;1771022;81;21295;-76
2021/09/19 08:24:33;;;;;;;28.25;23.22;;;;;;;20.24;78.19;99386.28;1769695;81;21371;-76
2021/09/19 08:27:41;;;;;;;31.73;23.25;;;;;;;20.30;77.74;99388.00;1771008;81;21851;-76
2021/09/19 08:30:48;;;;;;;30.77;25.27;;;;;;;20.33;77.87;99384.70;1769362;80;21189;-76
2021/09/19 08:33:53;;;;;;;34.00;26.80;;;;;;;20.33;77.70;99388.31;1770045;81;21339;-76
2021/09/19 08:36:59;;;;;;;29.37;23.35;;;;;;;20.35;78.13;99393.05;1748322;81;21220;-77
2021/09/19 08:40:05;;;;;;;31.77;24.60;;;;;;;20.53;79.12;99394.64;1749163;81;21185;-77
2021/09/19 08:43:13;;;;;;;39.25;29.77;;;;;;;20.81;79.87;99391.27;1749274;81;21209;-77
2021/09/19 08:46:22;;;;;;;36.33;28.52;;;;;;;21.12;79.07;99384.81;1749584;81;21193;-77
2021/09/19 08:49:28;;;;;;;32.35;25.20;;;;;;;21.45;77.64;99386.98;1749350;81;21772;-76
2021/09/19 08:52:34;;;;;;;37.35;28.07;;;;;;;21.74;75.35;99376.30;1747716;81;21181;-76
2021/09/19 08:55:41;;;;;;;38.83;29.45;;;;;;;21.82;72.30;99380.48;1749092;81;21200;-76
2021/09/19 08:58:47;;;;;;;39.38;31.30;;;;;;;21.80;71.23;99382.72;1769644;81;21197;-76
2021/09/19 09:02:09;;;;;;;36.15;28.75;;;;;;;21.80;71.78;99388.28;1770063;81;21889;-76
2021/09/19 09:05:16;;;;;;;27.80;22.42;;;;;;;21.65;70.74;99387.11;1744692;82;21198;-76
2021/09/19 09:08:21;;;;;;;35.00;21.15;;;;;;;21.50;70.89;99387.05;1689648;84;21177;-76
2021/09/19 09:11:27;;;;;;;27.58;19.73;;;;;;;21.48;71.16;99381.45;1710543;84;21231;-76
2021/09/19 09:14:35;;;;;;;29.50;20.60;;;;;;;21.54;71.26;99374.23;1709913;84;21881;-76
2021/09/19 09:17:41;;;;;;;29.98;22.17;;;;;;;21.64;70.84;99380.41;1709110;84;21199;-76
2021/09/19 09:21:00;;;;;;;23.05;18.90;;;;;;;21.67;70.05;99382.09;1710506;84;21310;-76
2021/09/19 09:24:09;;;;;;;24.47;19.40;;;;;;;21.69;70.42;99379.89;1710099;84;21219;-77
2021/09/19 09:27:29;;;;;;;17.17;14.27;;;;;;;21.69;70.60;99384.63;1710840;84;21168;-77
2021/09/19 09:30:35;;;;;;;14.53;12.50;;;;;;;21.81;71.19;99388.56;1709081;84;21439;-77
2021/09/19 09:33:40;;;;;;;19.60;13.90;;;;;;;21.89;69.00;99381.92;1710499;84;21248;-77
2021/09/19 09:36:57;;;;;;;20.43;15.45;;;;;;;21.90;69.57;99389.15;1710530;84;21176;-77
2021/09/19 09:40:03;;;;;;;15.75;13.55;;;;;;;21.90;69.67;99393.33;1709446;84;21337;-77
2021/09/19 09:43:15;;;;;;;20.50;14.78;;;;;;;21.91;69.97;99394.16;1708774;83;21193;-77
2021/09/19 09:46:21;;;;;;;18.52;14.35;;;;;;;21.89;69.82;99401.41;1710457;84;21326;-77
2021/09/19 09:49:46;;;;;;;21.12;16.48;;;;;;;21.85;69.60;99405.84;1711267;84;21200;-77
2021/09/19 09:52:52;;;;;;;25.85;18.80;;;;;;;21.85;69.50;99405.00;1710772;84;21849;-77
2021/09/19 09:55:58;;;;;;;30.05;19.92;;;;;;;21.83;68.98;99410.85;1709105;84;21223;-77
2021/09/19 09:59:04;;;;;;;29.12;21.27;;;;;;;21.82;69.91;99414.72;1709043;84;21354;-77
2021/09/19 10:02:10;;;;;;;31.42;20.50;;;;;;;21.82;68.98;99414.72;1710236;84;21309;-77
2021/09/19 10:05:16;;;;;;;29.98;20.20;;;;;;;21.85;69.23;99417.53;1726584;82;21323;-77
2021/09/19 10:08:21;;;;;;;27.67;19.80;;;;;;;21.90;69.60;99407.24;1771572;81;21303;-77
2021/09/19 10:11:27;;;;;;;34.70;22.13;;;;;;;22.07;69.87;99409.83;1769676;81;21229;-77
2021/09/19 10:14:34;;;;;;;37.35;24.90;;;;;;;22.27;69.30;99413.25;1754871;81;21358;-77
2021/09/19 10:17:43;;;;;;;37.35;22.00;;;;;;;22.29;68.95;99407.39;1769751;81;21315;-75
2021/09/19 10:20:52;;;;;;;34.50;21.50;;;;;;;22.16;67.13;99416.56;1769817;81;21177;-75
2021/09/19 10:23:58;;;;;;;28.90;18.75;;;;;;;22.06;67.62;99413.69;1771249;81;21299;-75
2021/09/19 10:27:05;;;;;;;25.50;16.85;;;;;;;22.03;67.00;99405.91;1771055;81;21326;-75
2021/09/19 10:30:15;;;;;;;25.27;17.77;;;;;;;22.01;64.86;99416.46;1772080;81;21323;-75
2021/09/19 10:33:47;;;;;;;29.00;19.40;;;;;;;22.00;64.57;99405.05;1769589;81;21204;-75
2021/09/19 10:36:56;;;;;;;26.12;18.50;;;;;;;22.14;64.47;99408.19;1769494;81;21220;-75
2021/09/19 10:40:13;;;;;;;28.80;18.02;;;;;;;22.30;64.61;99403.48;1754712;81;21870;-75
2021/09/19 10:43:29;;;;;;;29.12;16.60;;;;;;;22.49;62.17;99399.61;1771264;81;21173;-76
2021/09/19 10:46:48;;;;;;;22.32;15.68;;;;;;;22.58;61.88;99398.79;1770451;81;21161;-76
2021/09/19 10:49:54;;;;;;;21.62;14.75;;;;;;;22.70;60.49;99399.37;1772082;81;21253;-76
2021/09/19 10:53:15;;;;;;;19.52;13.18;;;;;;;22.80;60.05;99401.88;1736943;81;21684;-76
2021/09/19 10:56:21;;;;;;;17.42;12.85;;;;;;;22.88;58.29;99394.36;1769622;81;21291;-76
2021/09/19 10:59:32;;;;;;;16.55;12.68;;;;;;;22.89;56.78;99387.70;1769930;81;21192;-75
2021/09/19 11:02:38;;;;;;;16.32;11.20;;;;;;;22.94;57.29;99383.50;1771278;81;21740;-76
2021/09/19 11:05:52;;;;;;;12.23;10.60;;;;;;;23.02;56.16;99380.72;1770785;80;21224;-76
2021/09/19 11:08:59;;;;;;;14.55;10.35;;;;;;;23.11;55.84;99381.27;1757509;80;21626;-76
2021/09/19 11:12:22;;;;;;;16.75;9.70;;;;;;;23.25;55.37;99376.50;1781182;80;21212;-76
2021/09/19 11:15:32;;;;;;;14.70;10.25;;;;;;;23.33;53.77;99373.11;1782028;80;21288;-76
2021/09/19 11:18:50;;;;;;;11.68;9.35;;;;;;;23.35;53.39;99373.69;1781809;80;21240;-76
2021/09/19 11:21:56;;;;;;;14.87;9.95;;;;;;;23.30;51.57;99366.16;1780156;80;21305;-76
2021/09/19 11:25:02;;;;;;;18.35;11.30;;;;;;;23.20;50.87;99367.02;1780122;80;21263;-76
2021/09/19 11:28:09;;;;;;;12.50;10.90;;;;;;;23.04;51.88;99369.55;1780016;80;21231;-76
2021/09/19 11:31:15;;;;;;;15.85;11.70;;;;;;;22.90;51.90;99365.66;1780020;80;21255;-76
2021/09/19 11:34:25;;;;;;;17.90;12.43;;;;;;;22.79;52.16;99370.94;1780152;80;21783;-76
2021/09/19 11:37:31;;;;;;;18.75;13.65;;;;;;;22.70;53.05;99367.87;1780829;80;21184;-76
2021/09/19 11:40:36;;;;;;;19.62;14.83;;;;;;;22.65;53.04;99356.73;1759408;80;21791;-76
2021/09/19 11:43:44;;;;;;;26.73;16.12;;;;;;;22.63;53.32;99357.02;1780245;80;21184;-76
2021/09/19 11:46:57;;;;;;;20.27;13.88;;;;;;;22.61;52.99;99352.83;1779974;80;21183;-76
2021/09/19 11:50:03;;;;;;;17.70;12.50;;;;;;;22.50;52.84;99354.78;1780163;80;21291;-76
2021/09/19 11:53:15;;;;;;;18.85;11.55;;;;;;;22.39;51.35;99353.08;1781638;80;21885;-76
2021/09/19 11:56:20;;;;;;;18.62;12.00;;;;;;;22.29;51.06;99354.47;1781419;80;21885;-76
2021/09/19 11:59:26;;;;;;;17.27;12.80;;;;;;;22.21;51.37;99355.86;1780143;80;21193;-76
2021/09/19 12:02:36;;;;;;;17.50;11.85;;;;;;;22.12;52.16;99359.74;1781656;80;21292;-76
2021/09/19 12:05:41;;;;;;;14.40;9.88;;;;;;;22.08;52.15;99364.16;1723456;80;21793;-76
2021/09/19 12:08:51;;;;;;;10.53;7.92;;;;;;;22.10;50.27;99362.47;1774006;80;21220;-76
2021/09/19 12:11:59;;;;;;;11.20;7.67;;;;;;;22.17;50.59;99363.09;1770666;81;21331;-77
2021/09/19 12:15:04;;;;;;;16.90;10.50;;;;;;;22.28;49.73;99359.20;1771059;81;21165;-77
2021/09/19 12:18:13;;;;;;;13.43;8.93;;;;;;;22.38;49.75;99350.02;1769543;80;21771;-77
2021/09/19 12:21:28;;;;;;;8.80;6.30;;;;;;;22.43;49.77;99352.81;1772045;81;21295;-77
2021/09/19 12:24:35;;;;;;;5.90;5.22;;;;;;;22.41;48.04;99355.05;1769901;81;21791;-77
2021/09/19 12:27:42;;;;;;;6.67;4.87;;;;;;;22.38;46.81;99344.45;1771249;81;21248;-77
2021/09/19 12:30:48;;;;;;;6.97;4.97;;;;;;;22.32;46.41;99341.39;1771766;81;21831;-77
2021/09/19 12:34:03;;;;;;;7.55;5.22;;;;;;;22.30;46.95;99348.64;1769805;81;21712;-77
2021/09/19 12:37:09;;;;;;;5.78;4.70;;;;;;;22.28;47.75;99340.27;1753127;81;21229;-77
2021/09/19 12:40:18;;;;;;;4.65;4.25;;;;;;;22.27;47.38;99338.04;1771306;81;21362;-77
2021/09/19 12:43:23;;;;;;;4.67;4.08;;;;;;;22.27;47.33;99342.78;1771899;81;21846;-77
2021/09/19 12:46:28;;;;;;;4.42;3.98;;;;;;;22.26;45.92;99339.16;1772114;81;21672;-77
2021/09/19 12:49:41;;;;;;;4.00;3.60;;;;;;;22.22;45.47;99341.38;1770463;80;21152;-77
2021/09/19 12:52:46;;;;;;;4.83;3.67;;;;;;;22.16;45.97;99340.51;1769922;81;21299;-77
2021/09/19 12:55:53;;;;;;;4.62;4.15;;;;;;;22.14;46.29;99333.83;1772261;81;21145;-77
2021/09/19 12:58:59;;;;;;;5.78;4.15;;;;;;;22.19;46.83;99333.00;1770834;81;21251;-77
2021/09/19 13:02:05;;;;;;;4.97;3.55;;;;;;;22.29;47.07;99332.19;1769891;81;21216;-77
2021/09/19 13:05:12;;;;;;;5.78;4.10;;;;;;;22.36;45.30;99318.83;1771313;81;21228;-77
2021/09/19 13:08:18;;;;;;;4.10;3.70;;;;;;;22.39;45.87;99343.33;1769681;81;21185;-77
2021/09/19 13:11:24;;;;;;;4.35;3.72;;;;;;;22.36;45.23;99339.73;1771252;81;21296;-77
2021/09/19 13:14:30;;;;;;;6.83;3.35;;;;;;;22.34;45.96;99341.38;1769751;81;21233;-77
2021/09/19 13:17:35;;;;;;;6.72;3.60;;;;;;;22.34;46.27;99345.55;1770919;81;21264;-76
2021/09/19 13:20:42;;;;;;;5.90;4.15;;;;;;;22.34;46.25;99354.47;1770021;81;21193;-77
2021/09/19 13:23:47;;;;;;;6.37;4.30;;;;;;;22.31;45.84;99353.66;1771392;81;21890;-76
2021/09/19 13:26:58;;;;;;;3.90;3.37;;;;;;;22.25;46.20;99353.34;1770637;81;21212;-77
2021/09/19 13:30:02;;;;;;;;;;;;;;;22.14;45.78;99356.11;1772287;81;21764;-77
2021/09/19 13:33:07;;;;;;;5.60;3.90;;;;;;;22.02;46.49;99361.08;1771267;81;20282;-77
2021/09/19 13:36:13;;;;;;;4.00;3.30;;;;;;;21.91;45.96;99358.80;1769740;81;21736;-77
2021/09/19 13:39:20;;;;;;;5.42;3.10;;;;;;;21.87;46.19;99352.66;1769953;81;21339;-77
2021/09/19 13:42:26;;;;;;;3.77;3.10;;;;;;;21.86;46.01;99359.34;1769867;80;21177;-77
2021/09/19 13:45:25;;;;;;;4.20;3.17;;;;;;;21.85;45.60;99354.90;1771351;81;21224;-77
2021/09/19 13:48:31;;;;;;;4.65;2.62;;;;;;;21.81;46.03;99351.81;1769567;81;21180;-77
2021/09/19 13:51:37;;;;;;;4.28;2.77;;;;;;;21.80;46.69;99354.88;1769339;81;21239;-77
2021/09/19 13:54:44;;;;;;;3.30;2.95;;;;;;;21.79;46.87;99347.65;1769486;81;21240;-77
2021/09/19 13:57:50;;;;;;;3.45;2.58;;;;;;;21.77;46.83;99342.89;1770982;81;21831;-77
2021/09/19 14:00:56;;;;;;;4.50;2.90;;;;;;;21.73;46.63;99343.98;1770444;81;21319;-77
2021/09/19 14:04:02;;;;;;;5.70;3.55;;;;;;;21.69;46.83;99347.06;1769634;81;21247;-77
2021/09/19 14:07:07;;;;;;;6.05;2.75;;;;;;;21.67;47.15;99345.92;1771044;81;21197;-77
2021/09/19 14:10:13;;;;;;;4.03;2.87;;;;;;;21.66;47.18;99347.03;1768374;81;21248;-77
2021/09/19 14:13:18;;;;;;;16.52;2.87;;;;;;;21.64;47.04;99352.05;1771244;81;21208;-77
2021/09/19 14:16:25;;;;;;;4.10;3.22;;;;;;;21.59;46.14;99352.56;1769832;81;21255;-77
2021/09/19 14:19:30;;;;;;;5.83;3.00;;;;;;;21.48;46.54;99353.08;1770204;81;21723;-77
2021/09/19 14:22:38;;;;;;;4.80;3.12;;;;;;;21.38;47.33;99355.81;1769860;81;21723;-76
2021/09/19 14:25:43;;;;;;;5.05;3.60;;;;;;;21.26;47.84;99354.59;1769626;81;21233;-76